sensor_id;sensor_type;location;lat;lon;timestamp;pressure;altitude;pressure_sealevel;temperature;humidity
62849;BME280;48941;49.516;8.286;2023-02-18T00:01:17;101246.56;;;11.91;95.83
62849;BME280;48941;49.516;8.286;2023-02-18T00:03:47;101245.28;;;11.84;96.47
62849;BME280;48941;49.516;8.286;2023-02-18T00:06:17;101239.38;;;11.92;95.75
62849;BME280;48941;49.516;8.286;2023-02-18T00:08:45;101233.31;;;11.90;96.18
62849;BME280;48941;49.516;8.286;2023-02-18T00:11:16;101239.06;;;11.97;95.62
62849;BME280;48941;49.516;8.286;2023-02-18T00:13:49;101233.31;;;11.90;95.82
62849;BME280;48941;49.516;8.286;2023-02-18T00:16:17;101233.31;;;11.90;95.85
62849;BME280;48941;49.516;8.286;2023-02-18T00:18:45;101237.47;;;11.81;96.44
62849;BME280;48941;49.516;8.286;2023-02-18T00:21:13;101243.25;;;11.75;97.16
62849;BME280;48941;49.516;8.286;2023-02-18T00:23:41;101237.81;;;11.76;97.40
62849;BME280;48941;49.516;8.286;2023-02-18T00:26:11;101239.19;;;11.69;97.79
62849;BME280;48941;49.516;8.286;2023-02-18T00:28:41;101227.88;;;11.66;98.06
62849;BME280;48941;49.516;8.286;2023-02-18T00:31:12;101237.19;;;11.60;98.62
62849;BME280;48941;49.516;8.286;2023-02-18T00:33:40;101233.16;;;11.54;99.21
62849;BME280;48941;49.516;8.286;2023-02-18T00:36:10;101240.91;;;11.57;99.50
62849;BME280;48941;49.516;8.286;2023-02-18T00:38:39;101236.31;;;11.60;98.96
62849;BME280;48941;49.516;8.286;2023-02-18T00:41:10;101249.88;;;11.69;98.13
62849;BME280;48941;49.516;8.286;2023-02-18T00:43:38;101244.13;;;11.63;98.84
62849;BME280;48941;49.516;8.286;2023-02-18T00:46:07;101249.47;;;11.63;98.91
62849;BME280;48941;49.516;8.286;2023-02-18T00:48:35;101239.63;;;11.63;98.73
62849;BME280;48941;49.516;8.286;2023-02-18T00:51:04;101235.50;;;11.59;98.99
62849;BME280;48941;49.516;8.286;2023-02-18T00:53:33;101231.84;;;11.60;99.08
62849;BME280;48941;49.516;8.286;2023-02-18T00:56:01;101229.00;;;11.50;99.15
62849;BME280;48941;49.516;8.286;2023-02-18T00:58:29;101231.13;;;11.45;99.60
62849;BME280;48941;49.516;8.286;2023-02-18T01:00:57;101230.03;;;11.61;98.12
62849;BME280;48941;49.516;8.286;2023-02-18T01:03:26;101230.78;;;11.63;97.97
62849;BME280;48941;49.516;8.286;2023-02-18T01:05:54;101217.00;;;11.56;98.48
62849;BME280;48941;49.516;8.286;2023-02-18T01:08:22;101237.63;;;11.54;98.90
62849;BME280;48941;49.516;8.286;2023-02-18T01:10:56;101232.47;;;11.64;97.83
62849;BME280;48941;49.516;8.286;2023-02-18T01:13:24;101236.22;;;11.61;96.65
62849;BME280;48941;49.516;8.286;2023-02-18T01:15:52;101238.25;;;11.57;97.43
62849;BME280;48941;49.516;8.286;2023-02-18T01:18:21;101241.56;;;11.61;96.56
62849;BME280;48941;49.516;8.286;2023-02-18T01:20:50;101248.72;;;11.61;97.05
62849;BME280;48941;49.516;8.286;2023-02-18T01:23:19;101241.91;;;11.56;97.36
62849;BME280;48941;49.516;8.286;2023-02-18T01:25:47;101234.41;;;11.62;97.12
62849;BME280;48941;49.516;8.286;2023-02-18T01:28:15;101228.56;;;11.56;97.17
62849;BME280;48941;49.516;8.286;2023-02-18T01:30:44;101235.16;;;11.64;96.51
62849;BME280;48941;49.516;8.286;2023-02-18T01:33:12;101222.03;;;11.61;96.67
62849;BME280;48941;49.516;8.286;2023-02-18T01:35:40;101233.13;;;11.67;96.37
62849;BME280;48941;49.516;8.286;2023-02-18T01:38:09;101236.22;;;11.61;96.64
62849;BME280;48941;49.516;8.286;2023-02-18T01:40:44;101232.81;;;11.59;97.45
62849;BME280;48941;49.516;8.286;2023-02-18T01:43:14;101232.91;;;11.57;97.72
62849;BME280;48941;49.516;8.286;2023-02-18T01:46:04;101232.38;;;11.65;97.46
62849;BME280;48941;49.516;8.286;2023-02-18T01:48:36;101231.66;;;11.50;98.45
62849;BME280;48941;49.516;8.286;2023-02-18T01:51:09;101236.34;;;11.47;98.39
62849;BME280;48941;49.516;8.286;2023-02-18T01:53:44;101237.19;;;11.47;98.91
62849;BME280;48941;49.516;8.286;2023-02-18T01:56:17;101240.72;;;11.48;99.13
62849;BME280;48941;49.516;8.286;2023-02-18T01:58:47;101237.75;;;11.52;99.38
62849;BME280;48941;49.516;8.286;2023-02-18T02:01:16;101239.88;;;11.47;98.94
62849;BME280;48941;49.516;8.286;2023-02-18T02:03:44;101237.53;;;11.43;99.42
62849;BME280;48941;49.516;8.286;2023-02-18T02:06:15;101228.25;;;11.35;100.00
62849;BME280;48941;49.516;8.286;2023-02-18T02:08:47;101223.00;;;11.34;100.00
62849;BME280;48941;49.516;8.286;2023-02-18T02:14:34;101215.44;;;11.28;100.00
62849;BME280;48941;49.516;8.286;2023-02-18T02:17:10;101219.72;;;11.30;100.00
62849;BME280;48941;49.516;8.286;2023-02-18T02:20:13;101213.84;;;11.25;100.00
62849;BME280;48941;49.516;8.286;2023-02-18T02:26:40;101185.25;;;11.27;100.00
62849;BME280;48941;49.516;8.286;2023-02-18T02:29:47;101182.41;;;11.30;100.00
62849;BME280;48941;49.516;8.286;2023-02-18T02:35:31;101175.25;;;11.31;100.00
62849;BME280;48941;49.516;8.286;2023-02-18T02:38:04;101173.72;;;11.40;99.99
62849;BME280;48941;49.516;8.286;2023-02-18T02:40:37;101165.53;;;11.30;100.00
62849;BME280;48941;49.516;8.286;2023-02-18T02:43:11;101149.81;;;11.38;99.66
62849;BME280;48941;49.516;8.286;2023-02-18T02:45:50;101144.28;;;11.41;99.60
62849;BME280;48941;49.516;8.286;2023-02-18T02:48:30;101146.00;;;11.29;100.00
62849;BME280;48941;49.516;8.286;2023-02-18T02:51:05;101151.56;;;11.26;100.00
62849;BME280;48941;49.516;8.286;2023-02-18T02:53:35;101155.19;;;11.25;100.00
62849;BME280;48941;49.516;8.286;2023-02-18T02:56:03;101155.94;;;11.27;100.00
62849;BME280;48941;49.516;8.286;2023-02-18T02:58:32;101156.47;;;11.20;100.00
62849;BME280;48941;49.516;8.286;2023-02-18T03:01:19;101160.66;;;11.11;100.00
62849;BME280;48941;49.516;8.286;2023-02-18T03:07:14;101173.97;;;11.11;100.00
62849;BME280;48941;49.516;8.286;2023-02-18T03:10:02;101168.31;;;11.15;100.00
62849;BME280;48941;49.516;8.286;2023-02-18T03:12:35;101172.16;;;11.11;100.00
62849;BME280;48941;49.516;8.286;2023-02-18T03:15:13;101162.78;;;11.19;100.00
62849;BME280;48941;49.516;8.286;2023-02-18T03:17:52;101156.69;;;11.16;100.00
62849;BME280;48941;49.516;8.286;2023-02-18T03:20:25;101163.81;;;11.16;100.00
62849;BME280;48941;49.516;8.286;2023-02-18T03:22:57;101159.69;;;11.25;99.73
62849;BME280;48941;49.516;8.286;2023-02-18T03:25:27;101152.31;;;11.28;99.10
62849;BME280;48941;49.516;8.286;2023-02-18T03:27:59;101156.69;;;11.29;98.86
62849;BME280;48941;49.516;8.286;2023-02-18T03:30:32;101149.75;;;11.27;99.26
62849;BME280;48941;49.516;8.286;2023-02-18T03:33:03;101139.81;;;11.29;99.42
62849;BME280;48941;49.516;8.286;2023-02-18T03:35:34;101151.25;;;11.31;98.81
62849;BME280;48941;49.516;8.286;2023-02-18T03:38:09;101156.88;;;11.39;97.89
62849;BME280;48941;49.516;8.286;2023-02-18T03:40:39;101150.56;;;11.40;95.96
62849;BME280;48941;49.516;8.286;2023-02-18T03:43:06;101159.66;;;11.38;96.34
62849;BME280;48941;49.516;8.286;2023-02-18T03:45:35;101173.81;;;11.38;95.99
62849;BME280;48941;49.516;8.286;2023-02-18T03:48:03;101169.22;;;11.40;95.03
62849;BME280;48941;49.516;8.286;2023-02-18T03:50:32;101166.91;;;11.35;95.33
62849;BME280;48941;49.516;8.286;2023-02-18T03:52:59;101177.97;;;11.42;95.03
62849;BME280;48941;49.516;8.286;2023-02-18T03:55:29;101168.28;;;11.41;94.40
62849;BME280;48941;49.516;8.286;2023-02-18T03:57:56;101171.28;;;11.36;94.82
62849;BME280;48941;49.516;8.286;2023-02-18T04:00:24;101178.41;;;11.36;94.73
62849;BME280;48941;49.516;8.286;2023-02-18T04:02:52;101172.88;;;11.39;94.73
62849;BME280;48941;49.516;8.286;2023-02-18T04:05:20;101184.50;;;11.38;95.11
62849;BME280;48941;49.516;8.286;2023-02-18T04:07:47;101188.56;;;11.31;95.48
62849;BME280;48941;49.516;8.286;2023-02-18T04:10:15;101187.09;;;11.27;95.66
62849;BME280;48941;49.516;8.286;2023-02-18T04:12:45;101181.75;;;11.27;96.36
62849;BME280;48941;49.516;8.286;2023-02-18T04:15:13;101184.72;;;11.35;94.92
62849;BME280;48941;49.516;8.286;2023-02-18T04:17:40;101187.00;;;11.28;94.94
62849;BME280;48941;49.516;8.286;2023-02-18T04:20:09;101172.38;;;11.21;95.04
62849;BME280;48941;49.516;8.286;2023-02-18T04:22:37;101169.81;;;11.20;94.37
62849;BME280;48941;49.516;8.286;2023-02-18T04:25:05;101170.88;;;11.17;94.41
62849;BME280;48941;49.516;8.286;2023-02-18T04:27:33;101175.69;;;11.25;92.43
62849;BME280;48941;49.516;8.286;2023-02-18T04:30:04;101183.56;;;11.26;92.12
62849;BME280;48941;49.516;8.286;2023-02-18T04:32:32;101175.69;;;11.25;92.22
62849;BME280;48941;49.516;8.286;2023-02-18T04:35:00;101167.13;;;11.32;91.23
62849;BME280;48941;49.516;8.286;2023-02-18T04:37:28;101176.81;;;11.33;90.90
62849;BME280;48941;49.516;8.286;2023-02-18T04:39:55;101174.25;;;11.32;89.96
62849;BME280;48941;49.516;8.286;2023-02-18T04:42:23;101171.94;;;11.27;90.04
62849;BME280;48941;49.516;8.286;2023-02-18T04:44:51;101172.03;;;11.26;89.61
62849;BME280;48941;49.516;8.286;2023-02-18T04:47:20;101180.03;;;11.26;89.54
62849;BME280;48941;49.516;8.286;2023-02-18T04:49:48;101180.69;;;11.29;89.14
62849;BME280;48941;49.516;8.286;2023-02-18T04:52:16;101167.75;;;11.36;88.66
62849;BME280;48941;49.516;8.286;2023-02-18T04:54:44;101174.25;;;11.32;88.39
62849;BME280;48941;49.516;8.286;2023-02-18T04:57:12;101180.25;;;11.35;88.42
62849;BME280;48941;49.516;8.286;2023-02-18T04:59:40;101167.88;;;11.34;88.19
62849;BME280;48941;49.516;8.286;2023-02-18T05:02:08;101163.06;;;11.40;87.17
62849;BME280;48941;49.516;8.286;2023-02-18T05:04:37;101175.66;;;11.38;86.88
62849;BME280;48941;49.516;8.286;2023-02-18T05:07:05;101175.00;;;11.34;87.24
62849;BME280;48941;49.516;8.286;2023-02-18T05:09:33;101179.59;;;11.32;87.42
62849;BME280;48941;49.516;8.286;2023-02-18T05:12:04;101177.47;;;11.37;86.98
62849;BME280;48941;49.516;8.286;2023-02-18T05:14:32;101173.09;;;11.36;87.11
62849;BME280;48941;49.516;8.286;2023-02-18T05:17:00;101173.53;;;11.30;87.41
62849;BME280;48941;49.516;8.286;2023-02-18T05:19:28;101166.25;;;11.32;86.75
62849;BME280;48941;49.516;8.286;2023-02-18T05:21:57;101181.53;;;11.30;86.88
62849;BME280;48941;49.516;8.286;2023-02-18T05:24:25;101169.81;;;11.32;87.20
62849;BME280;48941;49.516;8.286;2023-02-18T05:26:53;101163.84;;;11.29;86.56
62849;BME280;48941;49.516;8.286;2023-02-18T05:29:20;101168.53;;;11.25;86.41
62849;BME280;48941;49.516;8.286;2023-02-18T05:31:48;101159.44;;;11.41;85.63
62849;BME280;48941;49.516;8.286;2023-02-18T05:34:17;101165.50;;;11.43;84.96
62849;BME280;48941;49.516;8.286;2023-02-18T05:36:45;101167.00;;;11.34;85.45
62849;BME280;48941;49.516;8.286;2023-02-18T05:39:14;101163.72;;;11.30;85.54
62849;BME280;48941;49.516;8.286;2023-02-18T05:41:42;101164.22;;;11.48;84.40
62849;BME280;48941;49.516;8.286;2023-02-18T05:44:10;101160.50;;;11.38;84.73
62849;BME280;48941;49.516;8.286;2023-02-18T05:46:56;101172.47;;;11.32;85.50
62849;BME280;48941;49.516;8.286;2023-02-18T05:49:24;101158.50;;;11.29;85.41
62849;BME280;48941;49.516;8.286;2023-02-18T05:51:52;101159.66;;;11.38;84.00
62849;BME280;48941;49.516;8.286;2023-02-18T05:54:21;101177.91;;;11.31;84.93
62849;BME280;48941;49.516;8.286;2023-02-18T05:56:49;101169.81;;;11.32;84.34
62849;BME280;48941;49.516;8.286;2023-02-18T05:59:18;101159.25;;;11.31;84.42
62849;BME280;48941;49.516;8.286;2023-02-18T06:01:46;101157.84;;;11.25;84.95
62849;BME280;48941;49.516;8.286;2023-02-18T06:04:14;101158.94;;;11.23;85.11
62849;BME280;48941;49.516;8.286;2023-02-18T06:06:42;101146.53;;;11.22;85.22
62849;BME280;48941;49.516;8.286;2023-02-18T06:09:10;101143.03;;;11.21;85.49
62849;BME280;48941;49.516;8.286;2023-02-18T06:11:39;101135.47;;;11.15;86.10
62849;BME280;48941;49.516;8.286;2023-02-18T06:14:07;101144.53;;;11.12;86.10
62849;BME280;48941;49.516;8.286;2023-02-18T06:16:35;101139.41;;;11.09;86.41
62849;BME280;48941;49.516;8.286;2023-02-18T06:19:03;101142.19;;;11.08;86.62
62849;BME280;48941;49.516;8.286;2023-02-18T06:21:31;101137.09;;;11.05;86.95
62849;BME280;48941;49.516;8.286;2023-02-18T06:23:59;101131.63;;;11.06;86.30
62849;BME280;48941;49.516;8.286;2023-02-18T06:26:26;101128.97;;;11.06;85.98
62849;BME280;48941;49.516;8.286;2023-02-18T06:28:56;101128.66;;;11.11;86.15
62849;BME280;48941;49.516;8.286;2023-02-18T06:31:24;101124.41;;;11.08;86.72
62849;BME280;48941;49.516;8.286;2023-02-18T06:33:52;101113.94;;;11.05;86.69
62849;BME280;48941;49.516;8.286;2023-02-18T06:36:20;101115.75;;;11.05;86.84
62849;BME280;48941;49.516;8.286;2023-02-18T06:38:48;101119.81;;;11.10;86.30
62849;BME280;48941;49.516;8.286;2023-02-18T06:41:16;101119.03;;;11.21;85.84
62849;BME280;48941;49.516;8.286;2023-02-18T06:43:43;101121.16;;;11.16;85.67
62849;BME280;48941;49.516;8.286;2023-02-18T06:46:12;101110.50;;;11.16;85.98
62849;BME280;48941;49.516;8.286;2023-02-18T06:48:40;101110.06;;;11.22;85.90
62849;BME280;48941;49.516;8.286;2023-02-18T06:51:08;101120.53;;;11.25;85.87
62849;BME280;48941;49.516;8.286;2023-02-18T06:53:36;101109.22;;;11.34;84.83
62849;BME280;48941;49.516;8.286;2023-02-18T06:56:04;101108.56;;;11.31;85.37
62849;BME280;48941;49.516;8.286;2023-02-18T06:58:32;101106.19;;;11.39;85.10
62849;BME280;48941;49.516;8.286;2023-02-18T07:01:00;101104.63;;;11.36;85.23
62849;BME280;48941;49.516;8.286;2023-02-18T07:03:29;101109.41;;;11.31;85.49
62849;BME280;48941;49.516;8.286;2023-02-18T07:05:57;101127.00;;;11.34;85.92
62849;BME280;48941;49.516;8.286;2023-02-18T07:08:25;101111.00;;;11.34;86.10
62849;BME280;48941;49.516;8.286;2023-02-18T07:10:53;101104.38;;;11.40;85.44
62849;BME280;48941;49.516;8.286;2023-02-18T07:13:20;101106.19;;;11.39;85.11
62849;BME280;48941;49.516;8.286;2023-02-18T07:15:50;101107.47;;;11.46;84.64
62849;BME280;48941;49.516;8.286;2023-02-18T07:18:17;101110.56;;;11.40;85.08
62849;BME280;48941;49.516;8.286;2023-02-18T07:20:46;101109.41;;;11.44;85.24
62849;BME280;48941;49.516;8.286;2023-02-18T07:23:14;101105.13;;;11.42;85.11
62849;BME280;48941;49.516;8.286;2023-02-18T07:25:42;101099.03;;;11.40;84.97
62849;BME280;48941;49.516;8.286;2023-02-18T07:28:12;101099.88;;;11.40;85.29
62849;BME280;48941;49.516;8.286;2023-02-18T07:30:40;101107.88;;;11.40;85.26
62849;BME280;48941;49.516;8.286;2023-02-18T07:33:07;101091.03;;;11.40;85.20
62849;BME280;48941;49.516;8.286;2023-02-18T07:35:35;101092.84;;;11.39;85.28
62849;BME280;48941;49.516;8.286;2023-02-18T07:38:04;101100.88;;;11.39;85.56
62849;BME280;48941;49.516;8.286;2023-02-18T07:40:32;101099.13;;;11.38;85.59
62849;BME280;48941;49.516;8.286;2023-02-18T07:43:00;101092.97;;;11.38;85.56
62849;BME280;48941;49.516;8.286;2023-02-18T07:45:27;101102.34;;;11.43;84.39
62849;BME280;48941;49.516;8.286;2023-02-18T07:47:55;101088.06;;;11.44;84.37
62849;BME280;48941;49.516;8.286;2023-02-18T07:50:23;101091.13;;;11.51;84.02
62849;BME280;48941;49.516;8.286;2023-02-18T07:52:51;101094.72;;;11.50;84.19
62849;BME280;48941;49.516;8.286;2023-02-18T07:55:20;101100.72;;;11.53;84.18
62849;BME280;48941;49.516;8.286;2023-02-18T07:57:48;101100.59;;;11.55;84.45
62849;BME280;48941;49.516;8.286;2023-02-18T08:00:26;101095.66;;;11.62;84.10
62849;BME280;48941;49.516;8.286;2023-02-18T08:02:54;101102.47;;;11.66;83.12
62849;BME280;48941;49.516;8.286;2023-02-18T08:05:22;101099.81;;;11.66;83.42
62849;BME280;48941;49.516;8.286;2023-02-18T08:07:50;101092.03;;;11.63;82.99
62849;BME280;48941;49.516;8.286;2023-02-18T08:10:18;101089.38;;;11.63;82.40
62849;BME280;48941;49.516;8.286;2023-02-18T08:12:47;101093.50;;;11.67;82.50
62849;BME280;48941;49.516;8.286;2023-02-18T08:15:15;101092.44;;;11.69;81.32
62849;BME280;48941;49.516;8.286;2023-02-18T08:17:42;101091.59;;;11.69;81.24
62849;BME280;48941;49.516;8.286;2023-02-18T08:20:11;101089.88;;;11.68;81.61
62849;BME280;48941;49.516;8.286;2023-02-18T08:22:39;101084.22;;;11.72;81.54
62849;BME280;48941;49.516;8.286;2023-02-18T08:25:07;101091.13;;;11.75;81.35
62849;BME280;48941;49.516;8.286;2023-02-18T08:27:55;101082.28;;;11.74;81.11
62849;BME280;48941;49.516;8.286;2023-02-18T08:30:23;101077.06;;;11.73;81.41
62849;BME280;48941;49.516;8.286;2023-02-18T08:32:51;101072.44;;;11.75;80.83
62849;BME280;48941;49.516;8.286;2023-02-18T08:35:19;101074.03;;;11.77;81.31
62849;BME280;48941;49.516;8.286;2023-02-18T08:37:47;101071.38;;;11.77;81.56
62849;BME280;48941;49.516;8.286;2023-02-18T08:40:20;101059.94;;;11.75;81.65
62849;BME280;48941;49.516;8.286;2023-02-18T08:42:48;101067.59;;;11.80;81.15
62849;BME280;48941;49.516;8.286;2023-02-18T08:45:17;101066.84;;;11.91;81.07
62849;BME280;48941;49.516;8.286;2023-02-18T08:47:45;101058.53;;;11.83;81.40
62849;BME280;48941;49.516;8.286;2023-02-18T08:50:33;101057.56;;;11.84;81.43
62849;BME280;48941;49.516;8.286;2023-02-18T08:53:02;101052.00;;;11.87;81.27
62849;BME280;48941;49.516;8.286;2023-02-18T08:55:31;101049.63;;;11.95;80.73
62849;BME280;48941;49.516;8.286;2023-02-18T08:57:59;101055.13;;;12.05;80.45
62849;BME280;48941;49.516;8.286;2023-02-18T09:00:28;101061.16;;;11.95;80.99
62849;BME280;48941;49.516;8.286;2023-02-18T09:02:56;101069.16;;;11.95;80.91
62849;BME280;48941;49.516;8.286;2023-02-18T09:05:24;101076.34;;;11.95;81.08
62849;BME280;48941;49.516;8.286;2023-02-18T09:07:52;101075.50;;;11.94;81.02
62849;BME280;48941;49.516;8.286;2023-02-18T09:10:19;101080.59;;;11.98;80.81
62849;BME280;48941;49.516;8.286;2023-02-18T09:12:47;101084.00;;;12.00;80.79
62849;BME280;48941;49.516;8.286;2023-02-18T09:15:15;101083.16;;;11.99;81.07
62849;BME280;48941;49.516;8.286;2023-02-18T09:17:45;101081.56;;;11.97;81.16
62849;BME280;48941;49.516;8.286;2023-02-18T09:20:13;101091.72;;;11.91;81.50
62849;BME280;48941;49.516;8.286;2023-02-18T09:22:41;101090.97;;;11.89;82.15
62849;BME280;48941;49.516;8.286;2023-02-18T09:25:09;101102.72;;;11.87;82.05
62849;BME280;48941;49.516;8.286;2023-02-18T09:27:37;101097.59;;;11.84;82.86
62849;BME280;48941;49.516;8.286;2023-02-18T09:30:05;101093.25;;;11.83;82.07
62849;BME280;48941;49.516;8.286;2023-02-18T09:32:34;101098.56;;;11.83;81.52
62849;BME280;48941;49.516;8.286;2023-02-18T09:35:04;101079.78;;;11.84;81.55
62849;BME280;48941;49.516;8.286;2023-02-18T09:37:32;101070.78;;;11.85;81.36
62849;BME280;48941;49.516;8.286;2023-02-18T09:39:59;101083.19;;;11.86;81.42
62849;BME280;48941;49.516;8.286;2023-02-18T09:42:30;101084.03;;;11.87;81.89
62849;BME280;48941;49.516;8.286;2023-02-18T09:45:00;101073.13;;;11.90;81.50
62849;BME280;48941;49.516;8.286;2023-02-18T09:47:32;101073.13;;;11.90;81.12
62849;BME280;48941;49.516;8.286;2023-02-18T09:50:06;101074.88;;;11.91;81.84
62849;BME280;48941;49.516;8.286;2023-02-18T09:52:36;101074.03;;;11.90;82.27
62849;BME280;48941;49.516;8.286;2023-02-18T09:55:17;101072.31;;;11.89;81.23
62849;BME280;48941;49.516;8.286;2023-02-18T09:57:47;101084.81;;;11.89;82.01
62849;BME280;48941;49.516;8.286;2023-02-18T10:00:19;101090.97;;;11.89;81.83
62849;BME280;48941;49.516;8.286;2023-02-18T10:02:53;101081.38;;;11.87;82.99
62849;BME280;48941;49.516;8.286;2023-02-18T10:05:25;101068.84;;;11.87;81.10
62849;BME280;48941;49.516;8.286;2023-02-18T10:07:57;101077.53;;;11.91;80.48
62849;BME280;48941;49.516;8.286;2023-02-18T10:10:34;101075.13;;;11.99;79.11
62849;BME280;48941;49.516;8.286;2023-02-18T10:13:03;101084.00;;;12.00;79.24
62849;BME280;48941;49.516;8.286;2023-02-18T10:15:31;101081.09;;;12.03;78.80
62849;BME280;48941;49.516;8.286;2023-02-18T10:18:00;101091.66;;;12.04;78.54
62849;BME280;48941;49.516;8.286;2023-02-18T10:20:31;101095.91;;;12.07;78.98
62849;BME280;48941;49.516;8.286;2023-02-18T10:23:01;101085.72;;;12.12;77.55
62849;BME280;48941;49.516;8.286;2023-02-18T10:25:31;101083.78;;;12.03;77.80
62849;BME280;48941;49.516;8.286;2023-02-18T10:28:04;101092.97;;;11.99;78.32
62849;BME280;48941;49.516;8.286;2023-02-18T10:30:35;101093.81;;;11.99;77.81
62849;BME280;48941;49.516;8.286;2023-02-18T10:33:29;101096.72;;;11.96;77.78
62849;BME280;48941;49.516;8.286;2023-02-18T10:36:14;101102.47;;;12.03;77.83
62849;BME280;48941;49.516;8.286;2023-02-18T10:38:58;101108.19;;;12.09;76.82
62849;BME280;48941;49.516;8.286;2023-02-18T10:41:34;101112.16;;;12.04;77.39
62849;BME280;48941;49.516;8.286;2023-02-18T10:44:11;101114.19;;;12.00;77.87
62849;BME280;48941;49.516;8.286;2023-02-18T10:46:49;101113.88;;;12.05;76.78
62849;BME280;48941;49.516;8.286;2023-02-18T10:49:39;101118.84;;;12.09;75.17
62849;BME280;48941;49.516;8.286;2023-02-18T10:52:15;101118.13;;;12.07;75.43
62849;BME280;48941;49.516;8.286;2023-02-18T10:54:50;101131.25;;;12.10;75.61
62849;BME280;48941;49.516;8.286;2023-02-18T10:57:20;101112.91;;;12.06;74.23
62849;BME280;48941;49.516;8.286;2023-02-18T11:00:00;101111.09;;;12.06;74.15
62849;BME280;48941;49.516;8.286;2023-02-18T11:02:37;101107.44;;;12.07;73.66
62849;BME280;48941;49.516;8.286;2023-02-18T11:05:17;101105.28;;;12.12;73.55
62849;BME280;48941;49.516;8.286;2023-02-18T11:07:50;101103.47;;;12.13;72.83
62849;BME280;48941;49.516;8.286;2023-02-18T11:10:21;101107.97;;;12.12;73.13
62849;BME280;48941;49.516;8.286;2023-02-18T11:12:55;101109.75;;;12.12;73.09
62849;BME280;48941;49.516;8.286;2023-02-18T11:15:25;101107.34;;;12.09;72.89
62849;BME280;48941;49.516;8.286;2023-02-18T11:17:54;101101.75;;;12.12;72.32
62849;BME280;48941;49.516;8.286;2023-02-18T11:20:29;101098.03;;;12.14;71.58
62849;BME280;48941;49.516;8.286;2023-02-18T11:23:14;101088.44;;;12.23;71.05
62849;BME280;48941;49.516;8.286;2023-02-18T11:25:52;101089.44;;;12.22;70.95
62849;BME280;48941;49.516;8.286;2023-02-18T11:28:32;101088.72;;;12.31;70.67
62849;BME280;48941;49.516;8.286;2023-02-18T11:31:04;101093.47;;;12.39;69.56
62849;BME280;48941;49.516;8.286;2023-02-18T11:33:34;101082.66;;;12.41;69.75
62849;BME280;48941;49.516;8.286;2023-02-18T11:36:15;101084.13;;;12.45;69.43
62849;BME280;48941;49.516;8.286;2023-02-18T11:38:49;101072.13;;;12.50;68.71
62849;BME280;48941;49.516;8.286;2023-02-18T11:41:19;101072.75;;;12.65;67.39
62849;BME280;48941;49.516;8.286;2023-02-18T11:43:49;101058.66;;;12.63;67.16
62849;BME280;48941;49.516;8.286;2023-02-18T11:46:20;101064.25;;;12.71;66.89
62849;BME280;48941;49.516;8.286;2023-02-18T11:48:49;101058.28;;;12.68;66.40
62849;BME280;48941;49.516;8.286;2023-02-18T11:51:18;101062.31;;;12.73;66.85
62849;BME280;48941;49.516;8.286;2023-02-18T11:53:57;101055.97;;;12.86;65.43
62849;BME280;48941;49.516;8.286;2023-02-18T11:56:28;101048.19;;;12.94;65.12
62849;BME280;48941;49.516;8.286;2023-02-18T11:58:58;101042.63;;;13.08;65.32
62849;BME280;48941;49.516;8.286;2023-02-18T12:01:40;101042.22;;;13.24;64.51
62849;BME280;48941;49.516;8.286;2023-02-18T12:04:13;101043.16;;;13.46;62.32
62849;BME280;48941;49.516;8.286;2023-02-18T12:06:48;101031.13;;;13.51;62.66
62849;BME280;48941;49.516;8.286;2023-02-18T12:09:26;101034.88;;;13.60;61.95
62849;BME280;48941;49.516;8.286;2023-02-18T12:11:57;101023.66;;;13.66;61.93
62849;BME280;48941;49.516;8.286;2023-02-18T12:14:28;101012.66;;;13.81;61.78
62849;BME280;48941;49.516;8.286;2023-02-18T12:17:11;101005.84;;;13.77;60.13
62849;BME280;48941;49.516;8.286;2023-02-18T12:19:54;101012.88;;;13.78;59.09
62849;BME280;48941;49.516;8.286;2023-02-18T12:22:33;100996.31;;;13.84;58.82
62849;BME280;48941;49.516;8.286;2023-02-18T12:25:31;101004.75;;;14.00;59.00
62849;BME280;48941;49.516;8.286;2023-02-18T12:28:14;100991.47;;;14.20;57.93
62849;BME280;48941;49.516;8.286;2023-02-18T12:31:01;101003.63;;;14.24;57.14
62849;BME280;48941;49.516;8.286;2023-02-18T12:33:41;101000.28;;;14.31;58.21
62849;BME280;48941;49.516;8.286;2023-02-18T12:36:20;100989.25;;;14.55;57.64
62849;BME280;48941;49.516;8.286;2023-02-18T12:38:54;100982.56;;;14.61;56.40
62849;BME280;48941;49.516;8.286;2023-02-18T12:41:37;100983.88;;;14.46;56.92
62849;BME280;48941;49.516;8.286;2023-02-18T12:44:19;100972.94;;;14.38;57.24
62849;BME280;48941;49.516;8.286;2023-02-18T12:47:01;100981.28;;;14.34;57.47
62849;BME280;48941;49.516;8.286;2023-02-18T12:49:49;100958.81;;;14.26;57.91
62849;BME280;48941;49.516;8.286;2023-02-18T12:52:28;100959.84;;;14.34;58.22
62849;BME280;48941;49.516;8.286;2023-02-18T12:55:24;100946.03;;;14.39;57.65
62849;BME280;48941;49.516;8.286;2023-02-18T12:58:04;100948.13;;;14.35;57.63
62849;BME280;48941;49.516;8.286;2023-02-18T13:00:57;100952.78;;;14.33;58.04
62849;BME280;48941;49.516;8.286;2023-02-18T13:03:52;100953.31;;;14.27;57.14
62849;BME280;48941;49.516;8.286;2023-02-18T13:06:37;100941.03;;;14.25;57.14
62849;BME280;48941;49.516;8.286;2023-02-18T13:09:16;100956.34;;;14.13;57.97
62849;BME280;48941;49.516;8.286;2023-02-18T13:11:57;100937.09;;;13.98;58.55
62849;BME280;48941;49.516;8.286;2023-02-18T13:14:32;100934.00;;;14.03;58.88
62849;BME280;48941;49.516;8.286;2023-02-18T13:17:02;100934.97;;;14.02;59.11
62849;BME280;48941;49.516;8.286;2023-02-18T13:19:34;100929.13;;;13.87;59.72
62849;BME280;48941;49.516;8.286;2023-02-18T13:22:05;100919.25;;;13.87;59.29
62849;BME280;48941;49.516;8.286;2023-02-18T13:24:37;100923.28;;;13.82;59.55
62849;BME280;48941;49.516;8.286;2023-02-18T13:27:13;100909.19;;;13.80;59.23